Time;durP1;ratioP1;P1;durP2;ratioP2;P2;SDS_P1;SDS_P2;PMS_P1;PMS_P2;Temp;Humidity;BMP_temperature;BMP_pressure;BME280_temperature;BME280_humidity;BME280_pressure;Samples;Min_cycle;Max_cycle;Signal;HPM_P1;HPM_P2
2023/11/01 00:00:32;;;;;;;3.77;1.73;;;12.50;99.90;;;;;;5027469;28;20431;-74
2023/11/01 00:03:18;;;;;;;5.27;2.07;;;12.40;99.90;;;;;;5027961;28;20463;-74
2023/11/01 00:06:05;;;;;;;5.33;1.80;;;12.50;99.90;;;;;;5023860;28;20421;-74
2023/11/01 00:08:50;;;;;;;9.50;1.87;;;12.50;99.90;;;;;;5029398;28;20430;-74
2023/11/01 00:11:36;;;;;;;4.03;1.83;;;12.60;99.90;;;;;;5022782;28;20484;-74
2023/11/01 00:14:21;;;;;;;5.80;1.87;;;12.60;99.90;;;;;;5026255;28;20479;-74
2023/11/01 00:17:09;;;;;;;3.17;1.50;;;12.70;99.90;;;;;;5024819;28;20974;-74
2023/11/01 00:19:54;;;;;;;2.67;1.70;;;12.60;99.90;;;;;;5028638;28;20402;-74
2023/11/01 00:22:40;;;;;;;7.90;2.10;;;12.50;99.90;;;;;;5021439;28;20452;-74
2023/11/01 00:25:26;;;;;;;7.20;2.73;;;12.50;99.90;;;;;;5027694;28;20952;-74
2023/11/01 00:28:11;;;;;;;4.63;2.20;;;12.50;99.90;;;;;;5032828;28;20405;-75
2023/11/01 00:30:57;;;;;;;3.20;2.10;;;12.40;99.90;;;;;;5026678;28;20793;-74
2023/11/01 00:33:44;;;;;;;3.07;2.07;;;12.40;99.90;;;;;;5030885;28;20534;-74
2023/11/01 00:36:30;;;;;;;8.80;2.90;;;12.40;99.90;;;;;;5030893;28;20466;-74
2023/11/01 00:39:15;;;;;;;3.43;2.00;;;12.40;99.90;;;;;;5032084;28;21048;-75
2023/11/01 00:42:01;;;;;;;3.40;1.77;;;12.40;99.90;;;;;;5031336;28;20429;-74
2023/11/01 00:44:47;;;;;;;3.73;1.83;;;12.40;99.90;;;;;;5027563;28;20486;-74
2023/11/01 00:47:33;;;;;;;4.33;2.77;;;12.40;99.90;;;;;;5030633;28;20430;-74
2023/11/01 00:50:20;;;;;;;4.73;2.27;;;12.30;99.90;;;;;;5030491;28;20413;-74
2023/11/01 00:53:06;;;;;;;6.60;2.10;;;12.20;99.90;;;;;;5027119;28;20466;-74
2023/11/01 00:55:51;;;;;;;5.10;2.77;;;12.20;99.90;;;;;;5029356;28;20438;-74
2023/11/01 00:58:37;;;;;;;7.47;2.17;;;12.10;99.90;;;;;;5030100;28;20510;-74
2023/11/01 01:01:24;;;;;;;5.67;2.23;;;12.10;99.90;;;;;;5030242;28;20410;-74
2023/11/01 01:04:10;;;;;;;3.40;1.83;;;12.10;99.90;;;;;;5027064;28;20436;-74
2023/11/01 01:06:57;;;;;;;4.50;2.47;;;12.00;99.90;;;;;;5030335;28;20428;-73
2023/11/01 01:09:42;;;;;;;4.33;1.87;;;12.10;99.90;;;;;;5030030;28;20435;-74
2023/11/01 01:12:28;;;;;;;4.53;2.20;;;12.00;99.90;;;;;;5027331;28;20447;-74
2023/11/01 01:15:13;;;;;;;4.17;2.40;;;12.10;99.90;;;;;;5030844;28;20519;-74
2023/11/01 01:17:59;;;;;;;7.27;2.33;;;12.00;99.90;;;;;;5030894;28;20422;-74
2023/11/01 01:20:44;;;;;;;9.93;2.50;;;12.10;99.90;;;;;;5027831;28;20437;-74
2023/11/01 01:23:32;;;;;;;3.07;2.00;;;12.00;99.90;;;;;;5028638;28;20597;-74
2023/11/01 01:26:17;;;;;;;6.90;2.40;;;12.00;99.90;;;;;;5030326;28;20486;-74
2023/11/01 01:29:03;;;;;;;6.90;2.30;;;12.00;99.90;;;;;;5025731;28;20407;-74
2023/11/01 01:31:48;;;;;;;4.50;2.20;;;12.10;99.90;;;;;;5029514;28;20553;-74
2023/11/01 01:34:34;;;;;;;6.80;2.40;;;12.10;99.90;;;;;;5028667;28;20478;-74
2023/11/01 01:37:20;;;;;;;3.10;2.00;;;12.10;99.90;;;;;;5027610;28;20430;-74
2023/11/01 01:40:09;;;;;;;10.67;2.00;;;12.10;99.90;;;;;;5021589;28;20428;-74
2023/11/01 01:42:54;;;;;;;6.53;1.80;;;12.20;99.90;;;;;;5023460;28;20447;-74
2023/11/01 01:45:40;;;;;;;6.10;2.10;;;12.10;99.90;;;;;;5028057;28;20431;-74
2023/11/01 01:48:26;;;;;;;12.20;2.27;;;12.20;99.90;;;;;;5028065;28;20414;-73
2023/11/01 01:51:13;;;;;;;6.57;1.90;;;12.20;99.90;;;;;;5025614;28;20498;-74
2023/11/01 01:53:58;;;;;;;3.00;1.87;;;12.20;99.90;;;;;;5024004;28;20833;-74
2023/11/01 01:56:46;;;;;;;4.80;1.90;;;12.20;99.90;;;;;;5028145;28;20559;-74
2023/11/01 01:59:31;;;;;;;7.40;1.93;;;12.30;99.90;;;;;;5027103;28;20426;-74
2023/11/01 02:02:19;;;;;;;4.90;2.10;;;12.20;99.90;;;;;;5028778;28;20442;-74
2023/11/01 02:05:06;;;;;;;7.00;1.80;;;12.20;99.90;;;;;;5024429;28;20531;-74
2023/11/01 02:07:51;;;;;;;6.80;2.27;;;12.20;99.90;;;;;;5029295;28;20498;-75
2023/11/01 02:10:37;;;;;;;8.73;1.63;;;12.20;99.90;;;;;;5021789;28;20512;-74
2023/11/01 02:13:24;;;;;;;7.03;1.70;;;12.20;99.90;;;;;;5027717;28;20421;-74
2023/11/01 02:16:10;;;;;;;6.00;3.30;;;12.30;99.90;;;;;;5025130;28;20421;-74
2023/11/01 02:18:55;;;;;;;5.50;1.77;;;12.30;99.90;;;;;;5022989;28;20796;-74
2023/11/01 02:21:41;;;;;;;3.90;2.03;;;12.30;99.90;;;;;;5028478;28;20569;-74
2023/11/01 02:24:29;;;;;;;3.60;1.63;;;12.40;99.90;;;;;;5027424;28;20479;-74
2023/11/01 02:27:14;;;;;;;9.93;1.80;;;12.30;99.90;;;;;;5025112;28;20476;-74
2023/11/01 02:30:00;;;;;;;2.73;1.60;;;12.30;99.90;;;;;;5028327;28;20450;-74
2023/11/01 02:32:47;;;;;;;2.90;1.60;;;12.40;99.90;;;;;;5028059;28;20464;-75
2023/11/01 02:35:33;;;;;;;4.13;2.03;;;12.40;99.90;;;;;;5026007;28;21059;-74
2023/11/01 02:38:19;;;;;;;7.33;2.13;;;12.40;99.90;;;;;;5026926;28;20785;-74
2023/11/01 02:41:06;;;;;;;8.40;2.30;;;12.40;99.90;;;;;;5017053;28;20431;-76
2023/11/01 02:43:51;;;;;;;6.70;2.10;;;12.40;99.90;;;;;;5027302;28;21061;-74
2023/11/01 02:46:37;;;;;;;3.93;1.87;;;12.40;99.90;;;;;;5025720;28;20568;-74
2023/11/01 02:49:23;;;;;;;3.50;1.67;;;12.50;99.90;;;;;;5025568;28;20929;-74
2023/11/01 02:52:09;;;;;;;3.80;1.87;;;12.50;99.90;;;;;;5023098;28;20501;-75
2023/11/01 02:54:54;;;;;;;6.10;1.90;;;12.40;99.90;;;;;;5027579;28;20468;-74
2023/11/01 02:57:43;;;;;;;7.67;1.80;;;12.40;99.90;;;;;;5027367;28;20776;-74
2023/11/01 03:00:29;;;;;;;6.57;1.77;;;12.40;99.90;;;;;;5026123;28;20446;-75
2023/11/01 03:03:14;;;;;;;8.50;2.03;;;12.40;99.90;;;;;;5023403;28;20830;-74
2023/11/01 03:06:00;;;;;;;6.40;2.17;;;12.40;99.90;;;;;;5021768;28;20778;-74
2023/11/01 03:08:46;;;;;;;4.93;1.97;;;12.40;99.90;;;;;;5027052;28;20410;-74
2023/11/01 03:11:31;;;;;;;5.93;1.70;;;12.50;99.90;;;;;;5019846;28;20986;-74
2023/11/01 03:14:19;;;;;;;5.20;2.40;;;12.50;99.90;;;;;;5024602;28;20941;-74
2023/11/01 03:17:05;;;;;;;6.40;2.10;;;12.50;99.90;;;;;;5021916;28;20413;-74
2023/11/01 03:19:50;;;;;;;5.17;2.27;;;12.40;99.90;;;;;;5026068;28;20464;-74
2023/11/01 03:22:36;;;;;;;8.83;2.20;;;12.40;99.90;;;;;;5023400;28;20439;-75
2023/11/01 03:25:22;;;;;;;5.10;1.53;;;12.50;99.90;;;;;;5025752;28;20950;-74
2023/11/01 03:28:08;;;;;;;7.73;1.90;;;12.50;99.90;;;;;;5019578;28;20865;-74
2023/11/01 03:30:58;;;;;;;6.30;1.77;;;12.50;99.90;;;;;;5016237;28;20588;-74
2023/11/01 03:33:44;;;;;;;9.67;2.03;;;12.50;99.90;;;;;;5020684;28;20455;-74
2023/11/01 03:36:30;;;;;;;6.07;1.77;;;12.50;99.90;;;;;;5027026;28;20429;-74
2023/11/01 03:39:18;;;;;;;3.70;1.60;;;12.40;99.90;;;;;;5024404;28;20436;-75
2023/11/01 03:42:04;;;;;;;3.00;1.50;;;12.40;99.90;;;;;;5021144;28;20477;-74
2023/11/01 03:44:49;;;;;;;3.20;1.30;;;12.40;99.90;;;;;;5026034;28;20427;-75
2023/11/01 03:47:37;;;;;;;4.87;1.90;;;12.40;99.90;;;;;;5020668;28;20435;-75
2023/11/01 03:50:22;;;;;;;10.63;1.50;;;12.40;99.90;;;;;;5024512;28;20414;-75
2023/11/01 03:53:08;;;;;;;8.40;2.20;;;12.50;99.90;;;;;;5021517;28;20451;-75
2023/11/01 03:55:54;;;;;;;7.73;1.90;;;12.50;99.90;;;;;;5028096;28;20816;-75
2023/11/01 03:58:40;;;;;;;11.30;1.80;;;12.50;99.90;;;;;;5022733;28;20432;-75
2023/11/01 04:01:25;;;;;;;5.20;1.60;;;12.50;99.90;;;;;;5023089;28;20802;-74
2023/11/01 04:04:12;;;;;;;4.37;1.70;;;12.40;99.90;;;;;;5021160;28;20569;-74
2023/11/01 04:06:58;;;;;;;4.30;1.80;;;12.40;99.90;;;;;;5025578;28;20394;-75
2023/11/01 04:09:43;;;;;;;4.40;2.70;;;12.50;99.90;;;;;;5030699;28;20432;-75
2023/11/01 04:12:29;;;;;;;6.70;1.40;;;12.50;99.90;;;;;;5016950;28;20434;-74
2023/11/01 04:15:16;;;;;;;8.50;1.93;;;12.50;99.90;;;;;;5022589;28;20576;-74
2023/11/01 04:18:01;;;;;;;4.40;1.60;;;12.50;99.90;;;;;;5020087;28;20450;-74
2023/11/01 04:20:48;;;;;;;4.83;2.07;;;12.50;99.90;;;;;;5025063;28;20427;-74
2023/11/01 04:23:34;;;;;;;7.73;1.80;;;12.50;99.90;;;;;;5021462;28;20541;-74
2023/11/01 04:26:20;;;;;;;7.47;1.23;;;12.40;99.90;;;;;;5021850;28;20399;-74
2023/11/01 04:29:06;;;;;;;3.40;1.57;;;12.40;99.90;;;;;;5022531;28;20765;-74
2023/11/01 04:31:52;;;;;;;2.63;1.40;;;12.40;99.90;;;;;;5024145;28;20434;-74
2023/11/01 04:34:38;;;;;;;7.60;1.73;;;12.40;99.90;;;;;;5021551;28;20482;-74
2023/11/01 04:37:26;;;;;;;2.60;1.83;;;12.40;99.90;;;;;;5025047;28;20483;-74
2023/11/01 04:40:13;;;;;;;6.57;2.20;;;12.40;99.90;;;;;;5014678;28;20427;-74
2023/11/01 04:42:59;;;;;;;7.23;1.50;;;12.40;99.90;;;;;;5021898;28;20447;-74
2023/11/01 04:45:45;;;;;;;16.53;2.07;;;12.40;99.90;;;;;;5024469;28;20447;-74
2023/11/01 04:48:30;;;;;;;5.13;2.10;;;12.40;99.90;;;;;;5022190;28;20958;-74
2023/11/01 04:51:16;;;;;;;8.20;1.90;;;12.50;99.90;;;;;;5019041;28;20443;-74
2023/11/01 04:54:06;;;;;;;5.13;1.87;;;12.50;99.90;;;;;;5024124;28;20562;-74
2023/11/01 04:56:51;;;;;;;4.50;1.60;;;12.60;99.90;;;;;;5024296;28;20404;-74
2023/11/01 04:59:37;;;;;;;5.47;1.60;;;12.60;99.90;;;;;;5021044;28;20444;-74
2023/11/01 05:02:23;;;;;;;5.10;1.70;;;12.60;99.90;;;;;;5020215;28;20523;-74
2023/11/01 05:05:09;;;;;;;5.77;2.07;;;12.60;99.90;;;;;;5019226;28;20449;-74
2023/11/01 05:07:54;;;;;;;3.63;1.40;;;12.60;99.90;;;;;;5027222;28;20432;-74
2023/11/01 05:10:41;;;;;;;3.37;1.60;;;12.60;99.90;;;;;;5015442;28;20523;-74
2023/11/01 05:13:27;;;;;;;3.70;1.40;;;12.60;99.90;;;;;;5026765;28;20451;-74
2023/11/01 05:16:12;;;;;;;3.43;1.50;;;12.70;99.90;;;;;;5027166;28;20473;-74
2023/11/01 05:18:58;;;;;;;3.60;1.20;;;12.60;99.90;;;;;;5026923;28;20512;-74
2023/11/01 05:21:44;;;;;;;5.90;1.70;;;12.60;99.90;;;;;;5026705;28;20471;-74
2023/11/01 05:24:30;;;;;;;6.50;1.80;;;12.60;99.90;;;;;;5028714;28;20431;-74
2023/11/01 05:27:19;;;;;;;5.83;1.70;;;12.60;99.90;;;;;;5023344;28;20424;-74
2023/11/01 05:30:05;;;;;;;8.50;2.17;;;12.60;99.90;;;;;;5030166;28;20534;-74
2023/11/01 05:32:50;;;;;;;3.67;1.77;;;12.60;99.90;;;;;;5026249;28;20452;-74
2023/11/01 05:35:36;;;;;;;14.87;1.80;;;12.60;99.90;;;;;;5024171;28;21183;-73
2023/11/01 05:38:22;;;;;;;6.80;3.00;;;12.50;99.90;;;;;;5020820;28;20501;-74
2023/11/01 05:41:09;;;;;;;8.57;2.23;;;12.50;99.90;;;;;;5017552;28;20421;-74
2023/11/01 05:43:56;;;;;;;6.43;1.87;;;12.50;99.90;;;;;;5025012;28;20411;-74
2023/11/01 05:46:42;;;;;;;11.50;1.93;;;12.60;99.90;;;;;;5027140;28;20501;-74
2023/11/01 05:49:27;;;;;;;5.37;1.63;;;12.60;99.90;;;;;;5025129;28;20443;-74
2023/11/01 05:52:13;;;;;;;4.97;2.30;;;12.60;99.90;;;;;;5021791;28;20537;-74
2023/11/01 05:54:59;;;;;;;3.23;2.63;;;12.60;99.90;;;;;;5029825;28;20550;-74
2023/11/01 05:57:48;;;;;;;3.37;1.70;;;12.60;99.90;;;;;;5023534;28;20480;-74
2023/11/01 06:00:35;;;;;;;6.17;1.63;;;12.60;99.90;;;;;;5023463;28;20590;-74
2023/11/01 06:03:24;;;;;;;3.60;1.20;;;12.60;99.90;;;;;;5017398;28;20525;-74
2023/11/01 06:06:10;;;;;;;8.90;1.70;;;12.70;99.90;;;;;;5024219;28;20406;-74
2023/11/01 06:08:56;;;;;;;4.80;1.83;;;12.60;99.90;;;;;;5028529;28;20490;-74
2023/11/01 06:11:43;;;;;;;7.27;1.93;;;12.60;99.90;;;;;;5025238;28;20453;-74
2023/11/01 06:14:28;;;;;;;4.67;1.47;;;12.60;99.90;;;;;;5022434;28;20413;-74
2023/11/01 06:17:15;;;;;;;3.90;1.53;;;12.60;99.90;;;;;;5025662;28;20398;-74
2023/11/01 06:20:01;;;;;;;5.00;1.87;;;12.50;99.90;;;;;;5025677;28;20403;-74
2023/11/01 06:22:47;;;;;;;4.00;1.93;;;12.50;99.90;;;;;;5024450;28;20430;-74
2023/11/01 06:25:33;;;;;;;4.00;1.50;;;12.50;99.90;;;;;;5022964;28;20466;-74
2023/11/01 06:28:19;;;;;;;12.93;1.93;;;12.50;99.90;;;;;;5023178;28;20406;-74
2023/11/01 06:31:05;;;;;;;15.83;2.00;;;12.40;99.90;;;;;;5024295;28;20965;-75
2023/11/01 06:33:52;;;;;;;8.90;1.50;;;12.40;99.90;;;;;;5024835;28;20428;-75
2023/11/01 06:36:37;;;;;;;10.13;3.00;;;12.30;99.90;;;;;;5026575;28;20448;-74
2023/11/01 06:39:23;;;;;;;4.47;1.40;;;12.20;99.90;;;;;;5021660;28;20468;-74
2023/11/01 06:42:09;;;;;;;6.50;1.90;;;12.20;99.90;;;;;;5024244;28;20447;-74
2023/11/01 06:44:54;;;;;;;4.87;1.57;;;12.10;99.90;;;;;;5022695;28;20407;-75
2023/11/01 06:47:40;;;;;;;11.60;1.57;;;12.10;99.90;;;;;;5020823;28;20437;-74
2023/11/01 06:50:26;;;;;;;3.87;1.50;;;12.10;99.90;;;;;;5021452;28;20450;-74
2023/11/01 06:53:12;;;;;;;8.10;2.47;;;12.10;99.90;;;;;;5020223;28;20422;-74
2023/11/01 06:55:58;;;;;;;8.43;2.20;;;12.00;99.90;;;;;;5024507;28;20468;-74
2023/11/01 06:58:44;;;;;;;8.03;1.87;;;12.10;99.90;;;;;;5024321;28;20954;-74
2023/11/01 07:01:29;;;;;;;6.00;1.80;;;12.20;99.90;;;;;;5019308;28;20965;-74
2023/11/01 07:04:15;;;;;;;3.43;1.67;;;12.10;99.90;;;;;;5020212;28;20928;-73
2023/11/01 07:07:03;;;;;;;5.10;2.43;;;12.10;99.90;;;;;;5022712;28;20428;-74
2023/11/01 07:09:48;;;;;;;6.70;2.00;;;12.20;99.90;;;;;;5024436;28;20976;-74
2023/11/01 07:12:34;;;;;;;7.60;1.77;;;12.20;99.90;;;;;;5020722;28;20454;-74
2023/11/01 07:15:20;;;;;;;7.43;1.70;;;12.20;99.90;;;;;;5020264;28;20444;-74
2023/11/01 07:18:07;;;;;;;4.07;1.60;;;12.20;99.90;;;;;;5022923;28;20934;-74
2023/11/01 07:20:52;;;;;;;8.40;1.90;;;12.10;99.90;;;;;;5023337;28;20399;-75
2023/11/01 07:23:39;;;;;;;5.33;1.50;;;12.20;99.90;;;;;;5020046;28;20434;-74
2023/11/01 07:26:25;;;;;;;5.27;1.40;;;12.30;99.90;;;;;;5023500;28;20792;-74
2023/11/01 07:29:10;;;;;;;4.70;1.33;;;12.30;99.90;;;;;;5023218;28;20406;-74
2023/11/01 07:31:56;;;;;;;5.73;1.47;;;12.30;99.90;;;;;;5020664;28;20448;-74
2023/11/01 07:34:42;;;;;;;5.07;1.90;;;12.40;99.90;;;;;;5016967;28;20411;-74
2023/11/01 07:37:27;;;;;;;4.50;1.70;;;12.50;99.90;;;;;;5018954;28;20431;-74
2023/11/01 07:40:14;;;;;;;6.33;2.00;;;12.50;99.90;;;;;;5020301;28;20405;-74
2023/11/01 07:43:00;;;;;;;6.33;1.80;;;12.50;99.90;;;;;;5020943;28;20431;-74
2023/11/01 07:45:46;;;;;;;4.93;1.50;;;12.60;99.90;;;;;;5019403;28;20398;-74
2023/11/01 07:48:32;;;;;;;7.47;1.80;;;12.60;99.90;;;;;;5019178;28;20432;-74
2023/11/01 07:51:17;;;;;;;4.03;1.20;;;12.70;99.90;;;;;;5019102;28;20915;-74
2023/11/01 07:54:03;;;;;;;8.37;3.20;;;12.70;99.90;;;;;;5021147;28;20415;-74
2023/11/01 07:56:50;;;;;;;5.00;1.93;;;12.80;99.90;;;;;;5018827;28;20527;-74
2023/11/01 07:59:36;;;;;;;6.90;1.70;;;12.90;99.90;;;;;;5022530;28;20454;-74
2023/11/01 08:02:22;;;;;;;8.33;1.67;;;12.90;99.90;;;;;;5020456;28;20450;-74
2023/11/01 08:05:08;;;;;;;4.60;1.60;;;13.00;99.90;;;;;;5021199;28;20431;-74
2023/11/01 08:07:53;;;;;;;10.80;1.47;;;13.10;99.90;;;;;;5021960;28;20523;-74
2023/11/01 08:10:39;;;;;;;5.80;2.03;;;13.10;99.90;;;;;;5024681;28;20915;-74
2023/11/01 08:13:26;;;;;;;5.73;1.00;;;13.10;99.90;;;;;;5018639;28;20427;-74
2023/11/01 08:16:12;;;;;;;3.17;1.40;;;13.20;99.90;;;;;;5021305;28;21015;-75
2023/11/01 08:18:58;;;;;;;5.03;1.30;;;13.20;99.90;;;;;;5019890;28;20983;-75
2023/11/01 08:21:44;;;;;;;8.97;1.70;;;13.20;99.90;;;;;;5022577;28;20426;-74
2023/11/01 08:24:29;;;;;;;19.97;2.20;;;13.20;99.90;;;;;;5019135;28;20770;-74
2023/11/01 08:27:15;;;;;;;3.87;1.20;;;13.20;99.90;;;;;;5018345;28;20406;-74
2023/11/01 08:30:02;;;;;;;4.43;1.33;;;13.30;99.90;;;;;;5019182;28;20429;-75
2023/11/01 08:32:48;;;;;;;6.13;1.20;;;13.30;99.90;;;;;;5017777;28;20756;-75
2023/11/01 08:35:33;;;;;;;2.37;0.90;;;13.30;99.90;;;;;;5017889;28;20809;-74
2023/11/01 08:38:19;;;;;;;6.03;1.33;;;13.30;99.90;;;;;;5017189;28;20402;-74
2023/11/01 08:41:05;;;;;;;4.93;1.50;;;13.30;99.90;;;;;;5021367;28;20433;-74
2023/11/01 08:43:50;;;;;;;5.50;1.53;;;13.40;99.90;;;;;;5021267;28;20919;-74
2023/11/01 08:46:37;;;;;;;2.90;1.10;;;13.40;99.90;;;;;;5018267;28;20427;-75
2023/11/01 08:49:23;;;;;;;4.97;1.30;;;13.50;99.90;;;;;;5021571;28;20531;-74
2023/11/01 08:52:11;;;;;;;2.70;1.00;;;13.50;99.90;;;;;;5023398;28;20535;-74
2023/11/01 08:54:57;;;;;;;2.07;1.13;;;13.50;99.90;;;;;;5024882;28;20407;-74
2023/11/01 08:57:45;;;;;;;4.40;1.20;;;13.60;99.90;;;;;;5021421;28;20468;-74
2023/11/01 09:00:31;;;;;;;3.40;0.83;;;13.70;99.90;;;;;;5021589;28;20394;-75
2023/11/01 09:03:18;;;;;;;3.23;1.13;;;13.70;99.90;;;;;;5020144;28;20538;-74
2023/11/01 09:06:04;;;;;;;3.63;1.10;;;13.80;99.90;;;;;;5022476;28;20552;-74
2023/11/01 09:08:50;;;;;;;2.70;1.03;;;13.90;99.90;;;;;;5025074;28;20442;-75
2023/11/01 09:11:35;;;;;;;1.53;0.80;;;13.90;99.90;;;;;;5022853;28;20459;-74
2023/11/01 09:14:21;;;;;;;3.60;1.63;;;13.90;99.90;;;;;;5020437;28;20442;-74
2023/11/01 09:17:07;;;;;;;2.13;0.90;;;14.00;99.90;;;;;;5022875;28;20454;-74
2023/11/01 09:19:54;;;;;;;4.07;1.10;;;14.10;99.90;;;;;;5023352;28;20423;-75
2023/11/01 09:22:40;;;;;;;3.90;1.17;;;14.20;99.90;;;;;;5020279;28;20504;-74
2023/11/01 09:25:27;;;;;;;2.63;1.00;;;14.20;99.90;;;;;;5020575;28;20562;-74
2023/11/01 09:28:13;;;;;;;4.23;0.90;;;14.40;99.90;;;;;;5023383;28;20940;-74
2023/11/01 09:30:59;;;;;;;3.47;1.27;;;14.60;99.90;;;;;;5019733;28;20417;-74
2023/11/01 09:33:48;;;;;;;2.60;1.03;;;14.70;99.90;;;;;;5024797;28;20802;-74
2023/11/01 09:36:38;;;;;;;6.77;1.30;;;14.80;99.90;;;;;;5018669;28;21153;-74
2023/11/01 09:39:23;;;;;;;8.07;1.07;;;14.80;99.90;;;;;;5020308;28;20428;-74
2023/11/01 09:42:20;;;;;;;2.37;0.80;;;14.90;99.90;;;;;;5022127;28;20560;-74
2023/11/01 09:45:09;;;;;;;3.20;1.20;;;15.00;99.90;;;;;;5023114;28;20504;-74
2023/11/01 09:47:55;;;;;;;1.50;0.80;;;15.20;99.90;;;;;;5023220;28;20441;-73
2023/11/01 09:50:42;;;;;;;3.10;1.50;;;15.30;99.90;;;;;;5019853;28;20957;-74
2023/11/01 09:53:29;;;;;;;2.43;1.23;;;15.40;99.90;;;;;;5018846;28;20483;-74
2023/11/01 09:56:16;;;;;;;3.77;1.40;;;15.50;99.90;;;;;;5022080;28;20462;-74
2023/11/01 09:59:02;;;;;;;3.53;1.10;;;15.50;99.90;;;;;;5021561;28;20404;-74
2023/11/01 10:01:48;;;;;;;5.07;1.07;;;15.50;99.90;;;;;;5023707;28;20455;-74
2023/11/01 10:04:34;;;;;;;5.77;1.20;;;15.50;99.90;;;;;;5019203;28;21014;-74
2023/11/01 10:07:19;;;;;;;2.93;1.00;;;15.40;99.90;;;;;;5022229;28;20455;-74
2023/11/01 10:10:08;;;;;;;7.83;1.07;;;15.40;99.90;;;;;;5022433;28;20411;-74
2023/11/01 10:12:54;;;;;;;2.53;1.33;;;15.40;99.90;;;;;;5018458;28;20455;-74
2023/11/01 10:15:40;;;;;;;1.53;0.70;;;15.30;99.90;;;;;;5018684;28;20833;-74
2023/11/01 10:18:26;;;;;;;3.10;1.00;;;15.20;99.90;;;;;;5018670;28;20579;-74
2023/11/01 10:21:12;;;;;;;3.17;1.03;;;15.20;99.90;;;;;;5020843;28;20462;-74
2023/11/01 10:24:00;;;;;;;3.27;0.90;;;15.20;99.90;;;;;;5021923;28;20400;-74
2023/11/01 10:26:48;;;;;;;10.30;1.80;;;15.30;99.90;;;;;;5023519;28;20430;-74
2023/11/01 10:29:43;;;;;;;3.70;1.00;;;15.50;99.90;;;;;;5021218;28;20504;-74
2023/11/01 10:32:28;;;;;;;5.70;1.30;;;15.60;99.90;;;;;;5018027;28;20431;-74
2023/11/01 10:35:14;;;;;;;1.93;0.80;;;15.70;99.90;;;;;;5019852;28;20827;-74
2023/11/01 10:38:01;;;;;;;2.93;0.83;;;15.90;99.90;;;;;;5020979;28;20480;-74
2023/11/01 10:40:47;;;;;;;4.90;0.60;;;15.90;99.90;;;;;;5025274;28;20468;-74
2023/11/01 10:43:33;;;;;;;2.60;0.97;;;15.90;99.40;;;;;;5017658;28;20448;-74
2023/11/01 10:46:19;;;;;;;3.00;1.20;;;15.70;98.80;;;;;;5019659;28;20772;-73
2023/11/01 10:49:07;;;;;;;2.47;0.90;;;15.70;99.10;;;;;;5018803;28;21068;-74
2023/11/01 10:51:54;;;;;;;3.33;1.20;;;15.70;99.40;;;;;;5017204;28;20464;-74
2023/11/01 10:54:44;;;;;;;2.00;0.83;;;15.70;97.40;;;;;;5017484;28;20922;-74
2023/11/01 10:57:29;;;;;;;10.20;1.90;;;15.70;96.10;;;;;;5017252;28;20800;-74
2023/11/01 11:00:24;;;;;;;6.53;1.00;;;15.70;98.80;;;;;;5019750;28;20432;-74
2023/11/01 11:03:18;;;;;;;6.73;1.00;;;15.60;95.50;;;;;;5017404;28;20897;-73
2023/11/01 11:06:11;;;;;;;1.80;0.77;;;15.60;99.20;;;;;;5020805;28;20930;-74
2023/11/01 11:09:18;;;;;;;2.63;1.00;;;15.60;97.60;;;;;;5016727;28;20975;-75
2023/11/01 11:12:19;;;;;;;5.87;1.00;;;15.50;97.00;;;;;;5019888;28;20559;-74
2023/11/01 11:15:06;;;;;;;5.10;0.97;;;15.50;95.40;;;;;;5017509;28;20559;-74
2023/11/01 11:20:44;;;;;;;5.00;1.00;;;15.50;97.70;;;;;;5085900;27;20669;-75
2023/11/01 11:23:34;;;;;;;4.10;1.07;;;15.40;96.20;;;;;;5087057;28;20810;-75
2023/11/01 11:26:38;;;;;;;8.70;2.03;;;15.40;97.50;;;;;;5088045;28;20564;-75
2023/11/01 11:29:43;;;;;;;4.17;1.17;;;15.40;98.40;;;;;;5079657;28;20547;-75
2023/11/01 11:32:28;;;;;;;7.93;1.17;;;15.30;99.20;;;;;;5085908;28;20800;-74
2023/11/01 11:35:22;;;;;;;7.77;1.17;;;15.30;99.90;;;;;;5088318;28;20400;-75
2023/11/01 11:38:32;;;;;;;4.10;1.03;;;15.40;99.90;;;;;;5085136;28;20414;-75
2023/11/01 11:41:18;;;;;;;2.80;0.97;;;15.30;98.20;;;;;;5082157;28;20409;-75
2023/11/01 11:44:09;;;;;;;4.57;1.03;;;15.40;99.90;;;;;;5084509;28;20458;-76
2023/11/01 11:46:55;;;;;;;1.70;0.93;;;15.50;99.90;;;;;;5079794;28;20442;-75
2023/11/01 11:49:41;;;;;;;6.07;1.10;;;15.60;99.90;;;;;;5083002;28;20911;-75
2023/11/01 11:52:27;;;;;;;6.90;1.17;;;15.60;99.90;;;;;;5078808;28;20441;-75
2023/11/01 11:55:14;;;;;;;2.77;0.90;;;15.70;99.90;;;;;;5078591;28;20815;-75
2023/11/01 11:58:00;;;;;;;3.47;0.80;;;15.80;99.90;;;;;;5067156;28;20441;-75
2023/11/01 12:00:47;;;;;;;3.10;0.93;;;15.90;99.90;;;;;;5071859;28;20443;-75
2023/11/01 12:03:32;;;;;;;4.70;1.33;;;15.90;98.00;;;;;;5071968;28;20449;-74
2023/11/01 12:06:19;;;;;;;4.43;1.27;;;15.80;99.20;;;;;;5067573;28;20949;-74
2023/11/01 12:09:04;;;;;;;5.87;1.10;;;15.80;99.40;;;;;;5063633;28;20462;-75
2023/11/01 12:11:53;;;;;;;2.70;1.10;;;15.90;99.90;;;;;;5071578;28;20444;-74
2023/11/01 12:14:39;;;;;;;2.90;0.83;;;16.00;99.90;;;;;;5075543;28;20421;-74
2023/11/01 12:17:25;;;;;;;2.67;1.00;;;15.90;98.00;;;;;;5080129;28;20982;-75
2023/11/01 12:20:11;;;;;;;6.80;1.30;;;15.90;98.90;;;;;;5080563;28;20683;-75
2023/11/01 12:22:56;;;;;;;10.97;1.40;;;15.90;99.90;;;;;;5061717;28;20552;-75
2023/11/01 12:25:42;;;;;;;3.07;0.77;;;15.90;99.90;;;;;;5063080;28;20413;-75
2023/11/01 12:28:29;;;;;;;2.70;1.00;;;15.80;99.90;;;;;;5063806;28;20416;-75
2023/11/01 12:31:15;;;;;;;3.70;1.13;;;15.90;99.90;;;;;;5057907;28;20409;-74
2023/11/01 12:34:10;;;;;;;3.17;0.90;;;15.80;99.90;;;;;;5049094;28;20426;-75
2023/11/01 12:37:07;;;;;;;5.53;1.40;;;15.70;99.90;;;;;;5049555;28;20586;-75
2023/11/01 12:40:01;;;;;;;5.10;1.07;;;15.80;99.90;;;;;;5051768;28;20958;-75
2023/11/01 12:42:49;;;;;;;3.30;0.90;;;15.90;99.90;;;;;;5060626;28;20441;-75
2023/11/01 12:45:36;;;;;;;6.00;1.10;;;15.90;99.90;;;;;;5057738;28;20418;-75
2023/11/01 12:48:21;;;;;;;2.13;1.03;;;16.00;98.40;;;;;;5056295;28;20442;-75
2023/11/01 12:51:08;;;;;;;3.87;1.10;;;16.00;97.30;;;;;;5054794;28;20518;-75
2023/11/01 12:53:58;;;;;;;2.23;0.77;;;16.00;99.10;;;;;;5055790;28;20428;-75
2023/11/01 12:56:44;;;;;;;8.80;1.17;;;16.00;96.70;;;;;;5053995;28;20463;-75
2023/11/01 12:59:30;;;;;;;6.07;1.20;;;16.00;99.90;;;;;;5049883;28;20466;-74
2023/11/01 13:02:18;;;;;;;8.90;1.10;;;16.00;97.20;;;;;;5061733;28;20520;-74
2023/11/01 13:05:03;;;;;;;3.43;1.27;;;16.00;97.60;;;;;;5059525;28;20450;-74
2023/11/01 13:07:50;;;;;;;2.20;0.90;;;16.00;99.80;;;;;;5056497;28;20467;-75
2023/11/01 13:10:37;;;;;;;2.47;0.93;;;16.00;99.00;;;;;;5063046;28;20411;-74
2023/11/01 13:13:23;;;;;;;3.13;1.27;;;16.00;99.90;;;;;;5053904;28;20613;-74
2023/11/01 13:16:09;;;;;;;2.37;0.83;;;16.00;99.90;;;;;;5047244;28;20486;-75
2023/11/01 13:18:56;;;;;;;8.10;1.17;;;15.90;99.90;;;;;;5047950;28;20447;-75
2023/11/01 13:21:41;;;;;;;5.00;1.07;;;15.90;99.90;;;;;;5054999;28;20433;-75
2023/11/01 13:24:27;;;;;;;2.90;1.00;;;16.00;99.90;;;;;;5048312;28;20787;-75
2023/11/01 13:27:13;;;;;;;2.73;0.80;;;15.90;99.90;;;;;;5065543;28;20805;-75
2023/11/01 13:29:58;;;;;;;3.20;1.27;;;15.90;99.90;;;;;;5060128;28;20414;-74
2023/11/01 13:32:44;;;;;;;3.90;1.20;;;15.90;99.90;;;;;;5050442;28;20446;-75
2023/11/01 13:35:31;;;;;;;4.33;1.63;;;15.90;99.90;;;;;;5053616;28;20942;-75
2023/11/01 13:38:17;;;;;;;1.90;1.20;;;15.90;99.90;;;;;;5055880;28;20430;-75
2023/11/01 13:41:03;;;;;;;2.07;1.17;;;15.90;99.90;;;;;;5055698;28;20821;-75
2023/11/01 13:43:48;;;;;;;3.00;1.30;;;15.90;99.90;;;;;;5053275;28;20903;-74
2023/11/01 13:46:36;;;;;;;3.87;1.03;;;15.80;99.90;;;;;;5056888;28;20451;-75
2023/11/01 13:49:21;;;;;;;2.40;0.90;;;15.80;99.90;;;;;;5057865;28;20414;-74
2023/11/01 13:52:11;;;;;;;2.90;0.87;;;15.80;99.90;;;;;;5052622;28;20525;-74
2023/11/01 13:54:56;;;;;;;1.90;1.00;;;15.70;99.90;;;;;;5051052;28;20619;-75
2023/11/01 13:57:42;;;;;;;2.23;1.00;;;15.70;99.90;;;;;;5051896;28;20942;-75
2023/11/01 14:00:28;;;;;;;2.27;1.07;;;15.70;99.90;;;;;;5059619;28;20467;-74
2023/11/01 14:03:13;;;;;;;2.10;0.90;;;15.70;99.90;;;;;;5058523;28;21002;-74
2023/11/01 14:05:59;;;;;;;6.23;1.47;;;15.70;99.90;;;;;;5059073;28;20416;-75
2023/11/01 14:08:46;;;;;;;3.20;1.20;;;15.60;99.90;;;;;;5050723;28;20983;-75
2023/11/01 14:11:31;;;;;;;2.60;1.17;;;15.60;99.90;;;;;;5062482;28;20427;-74
2023/11/01 14:14:17;;;;;;;4.87;1.47;;;15.50;99.90;;;;;;5057707;28;21076;-75
2023/11/01 14:17:02;;;;;;;1.97;0.90;;;15.50;99.90;;;;;;5047534;28;20422;-74
2023/11/01 14:19:48;;;;;;;2.67;0.80;;;15.50;99.90;;;;;;5050644;28;20466;-75
2023/11/01 14:22:34;;;;;;;6.57;1.10;;;15.60;99.90;;;;;;5051555;28;20810;-75
2023/11/01 14:25:21;;;;;;;2.10;1.07;;;15.50;99.90;;;;;;5053557;28;20914;-75
2023/11/01 14:28:07;;;;;;;4.43;0.93;;;15.50;99.90;;;;;;5048107;28;20447;-75